createdAt,value
2019-03-16T00:00:29.471Z,65.37
2019-03-16T00:03:03.036Z,60.67
2019-03-16T00:05:36.829Z,62.03
2019-03-16T00:08:18.160Z,63.17
2019-03-16T00:10:52.923Z,60.47
2019-03-16T00:13:26.286Z,56.07
2019-03-16T00:16:02.029Z,55.70
2019-03-16T00:18:36.509Z,59.70
2019-03-16T00:21:09.749Z,67.77
2019-03-16T00:23:44.694Z,61.83
2019-03-16T00:26:19.807Z,68.17
2019-03-16T00:28:53.216Z,58.63
2019-03-16T00:31:26.550Z,48.73
2019-03-16T00:34:02.348Z,51.23
2019-03-16T00:36:36.474Z,66.20
2019-03-16T00:39:11.145Z,52.73
2019-03-16T00:41:44.779Z,51.00
2019-03-16T00:44:19.561Z,49.85
2019-03-16T00:46:53.470Z,52.87
2019-03-16T00:49:26.904Z,46.80
2019-03-16T00:52:00.453Z,54.87
2019-03-16T00:54:35.636Z,47.33
2019-03-16T00:57:09.128Z,50.53
2019-03-16T00:59:43.258Z,54.80
2019-03-16T01:02:26.628Z,50.50
2019-03-16T01:04:53.059Z,62.33
2019-03-16T01:07:26.420Z,41.73
2019-03-16T01:10:01.011Z,138.70
2019-03-16T01:12:34.936Z,66.13
2019-03-16T01:15:10.662Z,146.03
2019-03-16T01:17:44.196Z,116.03
2019-03-16T01:20:18.158Z,91.90
2019-03-16T01:22:51.530Z,84.57
2019-03-16T01:25:24.777Z,126.87
2019-03-16T01:27:58.004Z,240.93
2019-03-16T01:30:31.734Z,59.90
2019-03-16T01:33:05.418Z,95.17
2019-03-16T01:35:42.754Z,80.60
2019-03-16T01:38:18.477Z,169.83
2019-03-16T01:40:52.253Z,94.97
2019-03-16T01:43:27.509Z,54.93
2019-03-16T01:46:01.982Z,58.40
2019-03-16T01:48:36.779Z,62.17
2019-03-16T01:51:10.432Z,112.70
2019-03-16T01:53:44.725Z,48.23
2019-03-16T01:56:20.626Z,54.00
2019-03-16T01:58:54.994Z,51.58
2019-03-16T02:01:28.345Z,53.97
2019-03-16T02:04:03.312Z,50.30
2019-03-16T02:06:36.817Z,62.65
2019-03-16T02:09:11.894Z,44.47
2019-03-16T02:11:45.378Z,54.03
2019-03-16T02:14:19.845Z,49.67
2019-03-16T02:16:53.581Z,43.57
2019-03-16T02:19:27.562Z,41.63
2019-03-16T02:22:01.463Z,82.93
2019-03-16T02:24:40.301Z,58.93
2019-03-16T02:27:13.911Z,51.63
2019-03-16T02:29:50.065Z,26.60
2019-03-16T02:32:25.012Z,29.23
2019-03-16T02:34:59.444Z,18.83
2019-03-16T02:37:34.089Z,21.13
2019-03-16T02:40:09.566Z,23.00
2019-03-16T02:42:45.622Z,23.37
2019-03-16T02:45:19.342Z,28.02
2019-03-16T02:47:55.129Z,28.33
2019-03-16T02:50:29.658Z,67.60
2019-03-16T02:53:04.589Z,29.13
2019-03-16T02:55:39.535Z,35.63
2019-03-16T02:58:14.621Z,55.90
2019-03-16T03:00:49.899Z,25.77
2019-03-16T03:03:29.619Z,26.90
2019-03-16T03:06:00.962Z,23.33
2019-03-16T03:08:36.014Z,783.10
2019-03-16T03:11:10.884Z,291.27
2019-03-16T03:13:45.505Z,85.27
2019-03-16T03:16:20.893Z,23.97
2019-03-16T03:18:55.423Z,23.53
2019-03-16T03:21:29.485Z,19.33
2019-03-16T03:24:04.154Z,21.33
2019-03-16T03:26:37.820Z,18.53
2019-03-16T03:29:14.098Z,19.93
2019-03-16T03:31:50.009Z,25.73
2019-03-16T03:34:23.802Z,18.15
2019-03-16T03:36:58.264Z,22.17
2019-03-16T03:39:33.277Z,23.67
2019-03-16T03:42:10.075Z,18.80
2019-03-16T03:44:44.282Z,19.52
2019-03-16T03:47:18.579Z,27.47
2019-03-16T03:49:52.785Z,21.90
2019-03-16T03:52:27.031Z,19.14
2019-03-16T03:55:04.864Z,20.83
2019-03-16T03:57:45.220Z,20.10
2019-03-16T04:00:23.685Z,27.13
2019-03-16T04:02:58.722Z,20.73
2019-03-16T04:05:35.725Z,21.93
2019-03-16T04:08:11.736Z,19.77
2019-03-16T04:10:45.207Z,18.07
2019-03-16T04:13:19.087Z,20.57
2019-03-16T04:15:53.083Z,20.97
2019-03-16T04:18:32.426Z,20.60
2019-03-16T04:21:07.042Z,17.57
2019-03-16T04:23:41.231Z,30.47
2019-03-16T04:26:17.026Z,30.55
2019-03-16T04:28:55.065Z,19.63
2019-03-16T04:31:32.200Z,16.95
2019-03-16T04:34:07.093Z,19.20
2019-03-16T04:36:42.001Z,23.07
2019-03-16T04:39:16.320Z,25.30
2019-03-16T04:41:54.047Z,20.47
2019-03-16T04:44:32.520Z,17.80
2019-03-16T04:47:06.618Z,19.73
2019-03-16T04:49:41.186Z,17.03
2019-03-16T04:52:15.740Z,20.92
2019-03-16T04:54:49.992Z,24.70
2019-03-16T04:57:23.998Z,15.80
2019-03-16T05:00:00.617Z,21.37
2019-03-16T05:02:34.782Z,16.85
2019-03-16T05:05:09.212Z,21.27
2019-03-16T05:07:43.886Z,17.60
2019-03-16T05:10:20.479Z,16.07
2019-03-16T05:12:57.843Z,12.90
2019-03-16T05:15:34.703Z,12.50
2019-03-16T05:18:09.356Z,13.20
2019-03-16T05:20:44.010Z,14.20
2019-03-16T05:23:18.652Z,16.65
2019-03-16T05:25:55.988Z,13.60
2019-03-16T05:28:28.992Z,14.13
2019-03-16T05:31:04.542Z,14.67
2019-03-16T05:33:40.057Z,18.50
2019-03-16T05:36:14.345Z,14.93
2019-03-16T05:38:48.499Z,16.43
2019-03-16T05:41:22.574Z,18.40
2019-03-16T05:43:58.285Z,19.20
2019-03-16T05:46:33.489Z,14.10
2019-03-16T05:49:08.238Z,21.12
2019-03-16T05:51:43.381Z,16.57
2019-03-16T05:54:20.173Z,13.63
2019-03-16T05:56:54.125Z,20.27
2019-03-16T05:59:27.683Z,16.73
2019-03-16T06:02:03.375Z,19.33
2019-03-16T06:04:37.625Z,18.95
2019-03-16T06:07:12.373Z,19.03
2019-03-16T06:09:51.576Z,24.27
2019-03-16T06:12:26.070Z,21.47
2019-03-16T06:15:03.796Z,20.47
2019-03-16T06:17:39.545Z,25.33
2019-03-16T06:20:19.756Z,17.93
2019-03-16T06:23:03.304Z,23.53
2019-03-16T06:25:37.583Z,18.20
2019-03-16T06:28:18.271Z,24.23
2019-03-16T06:30:57.803Z,17.50
2019-03-16T06:33:33.826Z,22.43
2019-03-16T06:36:09.541Z,28.83
2019-03-16T06:38:44.394Z,22.10
2019-03-16T06:41:21.241Z,19.57
2019-03-16T06:43:57.267Z,27.43
2019-03-16T06:46:33.783Z,18.17
2019-03-16T06:49:10.285Z,20.37
2019-03-16T06:51:44.740Z,16.87
2019-03-16T06:54:21.208Z,28.67
2019-03-16T06:56:55.603Z,18.93
2019-03-16T06:59:30.237Z,23.87
2019-03-16T07:02:04.663Z,20.20
2019-03-16T07:04:39.159Z,23.83
2019-03-16T07:07:15.364Z,25.03
2019-03-16T07:10:00.408Z,35.33
2019-03-16T07:12:35.163Z,40.70
2019-03-16T07:15:16.292Z,28.37
2019-03-16T07:17:53.288Z,24.57
2019-03-16T07:20:27.795Z,31.80
2019-03-16T07:23:03.537Z,29.73
2019-03-16T07:25:37.579Z,25.13
2019-03-16T07:28:14.352Z,27.93
2019-03-16T07:30:50.507Z,25.40
2019-03-16T07:33:25.951Z,29.33
2019-03-16T07:36:01.151Z,31.30
2019-03-16T07:38:41.571Z,30.73
2019-03-16T07:41:23.779Z,35.37
2019-03-16T07:44:01.595Z,34.77
2019-03-16T07:46:38.988Z,30.57
2019-03-16T07:49:17.598Z,26.50
2019-03-16T07:51:58.696Z,26.30
2019-03-16T07:54:32.772Z,25.30
2019-03-16T07:57:09.037Z,24.78
2019-03-16T07:59:46.084Z,41.60
2019-03-16T08:02:22.942Z,22.80
2019-03-16T08:04:58.284Z,23.60
2019-03-16T08:07:34.527Z,35.03
2019-03-16T08:10:14.419Z,28.03
2019-03-16T08:12:51.714Z,31.67
2019-03-16T08:15:28.859Z,35.07
2019-03-16T08:18:07.685Z,28.03
2019-03-16T08:20:45.300Z,29.03
2019-03-16T08:23:23.686Z,30.60
2019-03-16T08:25:58.560Z,25.63
2019-03-16T08:28:41.949Z,37.27
2019-03-16T08:31:17.197Z,24.90
2019-03-16T08:34:02.072Z,29.70
2019-03-16T08:36:38.096Z,29.20
2019-03-16T08:39:16.929Z,27.17
2019-03-16T08:41:51.611Z,31.50
2019-03-16T08:44:28.281Z,27.43
2019-03-16T08:47:09.620Z,24.24
2019-03-16T08:49:50.932Z,35.23
2019-03-16T08:52:33.145Z,31.83
2019-03-16T08:55:10.168Z,23.85
2019-03-16T08:57:45.927Z,24.57
2019-03-16T09:00:24.724Z,38.70
2019-03-16T09:03:04.102Z,36.10
2019-03-16T09:05:39.206Z,31.73
2019-03-16T09:08:13.883Z,32.27
2019-03-16T09:10:48.624Z,26.80
2019-03-16T09:13:23.942Z,29.87
2019-03-16T09:16:03.458Z,25.07
2019-03-16T09:18:41.385Z,39.67
2019-03-16T09:21:15.916Z,30.30
2019-03-16T09:23:51.930Z,37.97
2019-03-16T09:26:29.344Z,38.03
2019-03-16T09:29:14.987Z,32.95
2019-03-16T09:31:43.088Z,25.57
2019-03-16T09:34:19.938Z,24.67
2019-03-16T09:37:05.768Z,26.33
2019-03-16T09:39:41.798Z,27.53
2019-03-16T09:42:22.713Z,29.32
2019-03-16T09:44:59.145Z,29.40
2019-03-16T09:47:39.021Z,25.53
2019-03-16T09:50:19.116Z,28.42
2019-03-16T09:52:56.497Z,29.67
2019-03-16T09:55:36.047Z,30.40
2019-03-16T09:58:17.542Z,35.57
2019-03-16T10:00:54.956Z,34.77
2019-03-16T10:03:36.283Z,30.37
2019-03-16T10:06:10.418Z,37.80
2019-03-16T10:08:46.843Z,35.07
2019-03-16T10:11:23.288Z,28.70
2019-03-16T10:14:02.296Z,33.60
2019-03-16T10:16:36.707Z,31.90
2019-03-16T10:19:11.961Z,30.55
2019-03-16T10:21:51.161Z,30.50
2019-03-16T10:24:28.511Z,35.07
2019-03-16T10:27:05.114Z,34.15
2019-03-16T10:29:41.746Z,32.38
2019-03-16T10:32:16.578Z,38.40
2019-03-16T10:34:51.005Z,32.07
2019-03-16T10:37:27.326Z,38.88
2019-03-16T10:40:01.992Z,34.13
2019-03-16T10:42:46.775Z,30.80
2019-03-16T10:45:22.081Z,37.93
2019-03-16T10:47:59.229Z,29.70
2019-03-16T10:50:35.544Z,35.50
2019-03-16T10:53:12.659Z,35.20
2019-03-16T10:56:01.370Z,34.57
2019-03-16T10:58:38.533Z,31.03
2019-03-16T11:01:20.702Z,34.73
2019-03-16T11:03:58.606Z,34.23
2019-03-16T11:06:36.645Z,34.05
2019-03-16T11:09:16.837Z,37.67
2019-03-16T11:11:49.230Z,40.58
2019-03-16T11:14:30.725Z,39.93
2019-03-16T11:17:07.502Z,40.80
2019-03-16T11:19:44.593Z,38.78
2019-03-16T11:22:20.969Z,32.00
2019-03-16T11:25:01.186Z,30.33
2019-03-16T11:27:36.055Z,40.90
2019-03-16T11:30:18.262Z,34.20
2019-03-16T11:32:54.881Z,35.43
2019-03-16T11:35:31.145Z,39.23
2019-03-16T11:38:08.342Z,34.30
2019-03-16T11:40:50.207Z,38.73
2019-03-16T11:43:33.227Z,42.53
2019-03-16T11:46:08.708Z,33.43
2019-03-16T11:48:50.119Z,37.90
2019-03-16T11:51:27.394Z,47.58
2019-03-16T11:54:05.940Z,39.47
2019-03-16T11:56:43.022Z,42.57
2019-03-16T11:59:22.043Z,43.87
2019-03-16T12:02:05.219Z,43.73
2019-03-16T12:04:34.858Z,40.77
2019-03-16T12:07:09.363Z,53.60
2019-03-16T12:09:43.764Z,41.33
2019-03-16T12:12:19.464Z,50.55
2019-03-16T12:14:54.827Z,49.80
2019-03-16T12:17:30.997Z,51.90
2019-03-16T12:20:05.397Z,43.83
2019-03-16T12:22:39.883Z,47.33
2019-03-16T12:25:14.785Z,51.10
2019-03-16T12:27:49.065Z,54.40
2019-03-16T12:30:26.556Z,52.70
2019-03-16T12:33:01.578Z,56.40
2019-03-16T12:35:36.814Z,64.73
2019-03-16T12:38:13.044Z,59.03
2019-03-16T12:40:48.120Z,54.20
2019-03-16T12:43:25.103Z,62.48
2019-03-16T12:46:00.062Z,62.43
2019-03-16T12:48:35.183Z,65.07
2019-03-16T12:51:10.917Z,55.30
2019-03-16T12:53:45.298Z,59.25
2019-03-16T12:56:21.202Z,69.20
2019-03-16T12:58:55.313Z,69.80
2019-03-16T13:01:29.437Z,59.03
2019-03-16T13:04:05.802Z,67.00
2019-03-16T13:06:40.340Z,61.83
2019-03-16T13:09:17.779Z,76.27
2019-03-16T13:11:53.497Z,72.97
2019-03-16T13:14:27.831Z,79.57
2019-03-16T13:17:02.879Z,84.15
2019-03-16T13:19:39.557Z,75.30
2019-03-16T13:22:14.820Z,81.10
2019-03-16T13:24:49.285Z,80.57
2019-03-16T13:30:20.903Z,78.00
2019-03-16T13:32:58.945Z,82.80
2019-03-16T13:35:37.860Z,85.77
2019-03-16T13:38:13.086Z,90.50
2019-03-16T13:40:49.491Z,91.23
2019-03-16T13:43:24.771Z,91.03
2019-03-16T13:46:00.168Z,93.27
2019-03-16T13:48:36.617Z,85.62
2019-03-16T13:51:12.983Z,107.47
2019-03-16T13:53:54.508Z,81.43
2019-03-16T13:56:29.549Z,100.38
2019-03-16T13:59:05.574Z,104.17
2019-03-16T14:01:42.275Z,97.03
2019-03-16T14:04:17.480Z,116.30
2019-03-16T14:06:55.035Z,109.73
2019-03-16T14:09:29.261Z,101.53
2019-03-16T14:12:05.133Z,107.47
2019-03-16T14:14:41.877Z,115.82
2019-03-16T14:17:17.873Z,100.47
2019-03-16T14:19:56.234Z,106.60
2019-03-16T14:22:33.060Z,121.27
2019-03-16T14:25:09.758Z,109.93
2019-03-16T14:27:47.015Z,111.90
2019-03-16T14:30:39.863Z,116.10
2019-03-16T14:33:01.832Z,113.07
2019-03-16T14:35:36.895Z,115.03
2019-03-16T14:38:11.976Z,109.63
2019-03-16T14:40:46.886Z,109.47
2019-03-16T14:43:22.101Z,99.03
2019-03-16T14:45:56.967Z,112.53
2019-03-16T14:48:31.627Z,98.13
2019-03-16T14:51:06.473Z,105.70
2019-03-16T14:53:41.707Z,115.43
2019-03-16T14:56:17.246Z,108.23
2019-03-16T14:58:52.557Z,109.83
2019-03-16T15:01:26.554Z,117.33
2019-03-16T15:04:08.723Z,106.10
2019-03-16T15:06:42.629Z,103.67
2019-03-16T15:09:16.363Z,125.23
2019-03-16T15:11:49.615Z,96.45
2019-03-16T15:14:23.430Z,98.40
2019-03-16T15:16:57.015Z,128.87
2019-03-16T15:19:30.694Z,104.47
2019-03-16T15:22:05.507Z,118.45
2019-03-16T15:24:39.273Z,113.17
2019-03-16T15:27:15.733Z,100.00
2019-03-16T15:29:49.317Z,108.70
2019-03-16T15:32:23.635Z,121.17
2019-03-16T15:34:58.407Z,108.43
2019-03-16T15:37:32.671Z,129.30
2019-03-16T15:40:11.485Z,118.10
2019-03-16T15:42:45.148Z,125.90
2019-03-16T15:45:26.141Z,112.30
2019-03-16T15:48:00.191Z,128.40
2019-03-16T15:50:33.767Z,126.87
2019-03-16T15:53:09.098Z,119.20
2019-03-16T15:55:42.590Z,119.00
2019-03-16T15:58:17.333Z,107.50
2019-03-16T16:01:03.104Z,142.53
2019-03-16T16:03:26.981Z,125.72
2019-03-16T16:06:00.729Z,128.93
2019-03-16T16:08:35.533Z,132.67
2019-03-16T16:11:09.234Z,112.47
2019-03-16T16:13:42.860Z,118.53
2019-03-16T16:16:18.522Z,114.37
2019-03-16T16:18:52.080Z,101.57
2019-03-16T16:21:27.699Z,113.20
2019-03-16T16:24:01.469Z,108.50
2019-03-16T16:26:38.385Z,109.43
2019-03-16T16:29:12.168Z,116.57
2019-03-16T16:31:47.047Z,125.90
2019-03-16T16:34:21.971Z,113.47
2019-03-16T16:36:55.821Z,123.17
2019-03-16T16:39:29.461Z,121.00
2019-03-16T16:42:04.024Z,117.23
2019-03-16T16:44:37.701Z,135.37
2019-03-16T16:47:11.413Z,125.73
2019-03-16T16:49:48.858Z,143.62
2019-03-16T16:52:23.180Z,117.43
2019-03-16T16:54:56.596Z,126.83
2019-03-16T16:57:30.203Z,125.53
2019-03-16T17:00:04.785Z,143.03
2019-03-16T17:02:38.108Z,134.77
2019-03-16T17:05:11.874Z,133.80
2019-03-16T17:07:45.647Z,131.12
2019-03-16T17:10:22.091Z,134.90
2019-03-16T17:12:55.602Z,134.47
2019-03-16T17:15:29.072Z,139.03
2019-03-16T17:18:02.716Z,136.87
2019-03-16T17:20:36.688Z,137.03
2019-03-16T17:23:10.192Z,142.53
2019-03-16T17:25:43.730Z,154.07
2019-03-16T17:28:17.144Z,140.45
2019-03-16T17:30:52.144Z,153.20
2019-03-16T17:33:25.511Z,157.20
2019-03-16T17:35:59.440Z,162.13
2019-03-16T17:38:32.938Z,159.60
2019-03-16T17:41:06.575Z,152.95
2019-03-16T17:43:39.934Z,162.20
2019-03-16T17:46:14.957Z,165.27
2019-03-16T17:48:48.690Z,156.60
2019-03-16T17:51:22.147Z,157.83
2019-03-16T17:53:55.384Z,171.80
2019-03-16T17:56:28.876Z,162.83
2019-03-16T17:59:02.336Z,175.10
2019-03-16T18:01:35.582Z,167.67
2019-03-16T18:04:08.751Z,159.93
2019-03-16T18:06:45.046Z,191.90
2019-03-16T18:09:19.774Z,171.43
2019-03-16T18:11:52.957Z,176.23
2019-03-16T18:14:26.156Z,188.47
2019-03-16T18:17:00.219Z,173.83
2019-03-16T18:19:33.744Z,184.07
2019-03-16T18:22:07.696Z,184.77
2019-03-16T18:24:41.004Z,182.97
2019-03-16T18:27:14.533Z,176.90
2019-03-16T18:29:47.832Z,182.60
2019-03-16T18:32:22.576Z,194.77
2019-03-16T18:34:55.878Z,206.67
2019-03-16T18:37:29.167Z,186.50
2019-03-16T18:40:04.212Z,182.47
2019-03-16T18:42:38.070Z,185.20
2019-03-16T18:45:29.203Z,171.67
2019-03-16T18:48:02.395Z,189.90
2019-03-16T18:50:35.606Z,193.20
2019-03-16T18:53:08.827Z,181.33
2019-03-16T18:55:42.278Z,184.95
2019-03-16T18:58:17.012Z,216.23
2019-03-16T19:00:50.392Z,196.93
2019-03-16T19:03:25.209Z,203.37
2019-03-16T19:05:58.397Z,211.77
2019-03-16T19:08:31.722Z,197.53
2019-03-16T19:11:06.563Z,194.80
2019-03-16T19:13:39.758Z,190.43
2019-03-16T19:16:14.202Z,202.23
2019-03-16T19:18:47.642Z,196.20
2019-03-16T19:21:21.321Z,193.17
2019-03-16T19:23:54.551Z,196.63
2019-03-16T19:26:30.182Z,198.40
2019-03-16T19:29:03.577Z,201.10
2019-03-16T19:31:38.535Z,185.13
2019-03-16T19:34:11.861Z,172.37
2019-03-16T19:36:46.397Z,169.67
2019-03-16T19:39:21.059Z,170.62
2019-03-16T19:41:54.447Z,182.63
2019-03-16T19:44:28.424Z,169.73
2019-03-16T19:47:01.714Z,168.63
2019-03-16T19:49:36.719Z,159.57
2019-03-16T19:52:10.155Z,163.83
2019-03-16T19:54:43.809Z,165.02
2019-03-16T19:57:17.036Z,150.43
2019-03-16T19:59:50.348Z,162.07
2019-03-16T20:02:25.799Z,156.95
2019-03-16T20:04:59.392Z,141.07
2019-03-16T20:07:32.650Z,154.38
2019-03-16T20:10:08.414Z,153.97
2019-03-16T20:12:41.892Z,154.03
2019-03-16T20:15:16.581Z,149.27
2019-03-16T20:17:49.884Z,166.73
2019-03-16T20:20:23.400Z,166.53
2019-03-16T20:22:56.620Z,163.17
2019-03-16T20:25:30.022Z,163.37
2019-03-16T20:28:03.220Z,143.03
2019-03-16T20:30:36.627Z,159.23
2019-03-16T20:33:10.047Z,171.13
2019-03-16T20:35:45.843Z,158.53
2019-03-16T20:38:18.262Z,147.70
2019-03-16T20:40:51.698Z,167.77
2019-03-16T20:43:25.150Z,163.07
2019-03-16T20:45:58.702Z,148.97
2019-03-16T20:48:32.927Z,151.67
2019-03-16T20:51:09.188Z,147.33
2019-03-16T20:53:41.067Z,145.37
2019-03-16T20:56:14.428Z,145.00
2019-03-16T20:58:48.026Z,139.17
2019-03-16T21:04:04.043Z,138.20
2019-03-16T21:06:37.545Z,145.77
2019-03-16T21:09:10.991Z,137.17
2019-03-16T21:11:44.403Z,142.00
2019-03-16T21:14:17.845Z,128.10
2019-03-16T21:16:51.177Z,125.53
2019-03-16T21:19:24.453Z,134.80
2019-03-16T21:21:59.157Z,138.20
2019-03-16T21:24:32.394Z,130.77
2019-03-16T21:27:05.776Z,135.70
2019-03-16T21:29:39.089Z,140.63
2019-03-16T21:32:12.714Z,129.50
2019-03-16T21:34:46.086Z,121.33
2019-03-16T21:37:19.466Z,135.70
2019-03-16T21:39:52.743Z,134.53
2019-03-16T21:42:27.508Z,129.97
2019-03-16T21:45:00.888Z,134.13
2019-03-16T21:47:34.061Z,125.37
2019-03-16T21:50:09.368Z,138.33
2019-03-16T21:52:44.800Z,124.53
2019-03-16T21:55:18.434Z,119.47
2019-03-16T21:57:51.811Z,135.90
2019-03-16T22:00:25.236Z,131.47
2019-03-16T22:02:58.687Z,129.90
2019-03-16T22:05:31.970Z,114.80
2019-03-16T22:08:05.585Z,130.00
2019-03-16T22:10:38.781Z,125.62
2019-03-16T22:13:14.807Z,123.25
2019-03-16T22:15:49.679Z,126.33
2019-03-16T22:18:22.945Z,131.52
2019-03-16T22:20:56.289Z,126.67
2019-03-16T22:23:29.569Z,131.97
2019-03-16T22:26:02.869Z,144.83
2019-03-16T22:28:36.099Z,136.32
2019-03-16T22:31:09.974Z,144.03
2019-03-16T22:33:54.035Z,138.37
2019-03-16T22:36:17.859Z,129.05
2019-03-16T22:38:51.152Z,146.83
2019-03-16T22:41:25.946Z,144.55
2019-03-16T22:43:59.200Z,137.67
2019-03-16T22:46:32.585Z,124.03
2019-03-16T22:49:06.050Z,129.13
2019-03-16T22:51:39.533Z,136.13
2019-03-16T22:54:13.240Z,132.35
2019-03-16T22:56:46.468Z,131.47
2019-03-16T22:59:19.755Z,133.07
2019-03-16T23:01:54.012Z,150.77
2019-03-16T23:04:29.219Z,140.03
2019-03-16T23:07:03.581Z,128.73
2019-03-16T23:09:36.895Z,141.00
2019-03-16T23:12:10.104Z,124.53
2019-03-16T23:14:43.546Z,119.13
2019-03-16T23:17:18.617Z,119.77
2019-03-16T23:19:53.349Z,117.43
2019-03-16T23:22:26.848Z,126.73
2019-03-16T23:25:00.297Z,120.20
2019-03-16T23:27:35.602Z,122.60
2019-03-16T23:30:13.245Z,125.17
2019-03-16T23:32:46.814Z,117.57
2019-03-16T23:35:20.634Z,125.17
2019-03-16T23:37:53.969Z,122.63
2019-03-16T23:40:27.615Z,122.30
2019-03-16T23:43:02.660Z,102.50
2019-03-16T23:45:36.186Z,124.40
2019-03-16T23:48:09.721Z,108.80
2019-03-16T23:50:44.417Z,105.50
2019-03-16T23:53:19.377Z,106.52
2019-03-16T23:55:53.369Z,103.53
2019-03-16T23:58:27.609Z,103.50
